Terminal Aerodrome Forecast
Issued by NWS

Home | Current Version | Previous Version | Text Only | Print | Product List | Glossary On
Versions: 1 2 3 4 5 6 7 8 9 10 11 12 13 14 15 16 17
563
FTUS43 KDVN 300657 AAA
TAFBRL
TAF AMD
KBRL 300657Z 3007/3106 02004KT P6SM OVC006
     FM301000 32004KT 4SM BR SCT004 BKN008
      TEMPO 3010/3013 1SM BR BKN004
     FM301500 34005KT 6SM HZ SCT009 BKN020
     FM301800 01007KT P6SM BKN035=

USA.gov is the U.S. government's official web portal to all federal, state and local government web resources and services.